sensor_id;sensor_type;location;lat;lon;timestamp;pressure;altitude;pressure_sealevel;temperature;humidity
76201;BME280;64981;52.930;9.266;2023-02-13T00:00:16;103559.66;;;7.88;81.74
76201;BME280;64981;52.930;9.266;2023-02-13T00:02:42;103559.09;;;7.82;81.97
76201;BME280;64981;52.930;9.266;2023-02-13T00:05:07;103549.56;;;7.79;82.24
76201;BME280;64981;52.930;9.266;2023-02-13T00:07:33;103555.13;;;7.73;81.88
76201;BME280;64981;52.930;9.266;2023-02-13T00:09:58;103554.19;;;7.74;82.03
76201;BME280;64981;52.930;9.266;2023-02-13T00:12:24;103552.50;;;7.73;82.20
76201;BME280;64981;52.930;9.266;2023-02-13T00:14:49;103546.41;;;7.73;81.90
76201;BME280;64981;52.930;9.266;2023-02-13T00:17:15;103553.94;;;7.80;81.64
76201;BME280;64981;52.930;9.266;2023-02-13T00:19:41;103539.97;;;7.78;81.39
76201;BME280;64981;52.930;9.266;2023-02-13T00:22:06;103550.44;;;7.80;81.49
76201;BME280;64981;52.930;9.266;2023-02-13T00:24:32;103543.06;;;7.69;81.49
76201;BME280;64981;52.930;9.266;2023-02-13T00:26:57;103536.44;;;7.79;81.34
76201;BME280;64981;52.930;9.266;2023-02-13T00:29:23;103540.97;;;7.76;81.72
76201;BME280;64981;52.930;9.266;2023-02-13T00:31:49;103537.13;;;7.83;81.43
76201;BME280;64981;52.930;9.266;2023-02-13T00:34:14;103533.94;;;7.76;81.45
76201;BME280;64981;52.930;9.266;2023-02-13T00:36:40;103541.59;;;7.81;81.34
76201;BME280;64981;52.930;9.266;2023-02-13T00:39:05;103537.75;;;7.71;81.75
76201;BME280;64981;52.930;9.266;2023-02-13T00:41:31;103533.84;;;7.78;81.38
76201;BME280;64981;52.930;9.266;2023-02-13T00:43:56;103533.09;;;7.76;81.47
76201;BME280;64981;52.930;9.266;2023-02-13T00:46:22;103526.44;;;7.86;80.92
76201;BME280;64981;52.930;9.266;2023-02-13T00:48:48;103522.25;;;7.82;80.91
76201;BME280;64981;52.930;9.266;2023-02-13T00:51:13;103531.63;;;7.70;81.47
76201;BME280;64981;52.930;9.266;2023-02-13T00:53:40;103528.34;;;7.65;81.63
76201;BME280;64981;52.930;9.266;2023-02-13T00:56:06;103534.47;;;7.65;81.55
76201;BME280;64981;52.930;9.266;2023-02-13T00:58:32;103529.28;;;7.64;81.63
76201;BME280;64981;52.930;9.266;2023-02-13T01:00:58;103537.13;;;7.83;80.79
76201;BME280;64981;52.930;9.266;2023-02-13T01:03:24;103533.25;;;7.90;80.24
76201;BME280;64981;52.930;9.266;2023-02-13T01:05:50;103536.56;;;7.76;80.89
76201;BME280;64981;52.930;9.266;2023-02-13T01:08:18;103534.16;;;7.72;80.91
76201;BME280;64981;52.930;9.266;2023-02-13T01:10:46;103539.06;;;7.79;80.91
76201;BME280;64981;52.930;9.266;2023-02-13T01:13:14;103534.00;;;7.75;80.87
76201;BME280;64981;52.930;9.266;2023-02-13T01:15:40;103529.69;;;7.91;80.23
76201;BME280;64981;52.930;9.266;2023-02-13T01:18:06;103534.03;;;7.92;80.13
76201;BME280;64981;52.930;9.266;2023-02-13T01:20:32;103517.16;;;7.79;80.51
76201;BME280;64981;52.930;9.266;2023-02-13T01:22:58;103527.00;;;7.92;79.96
76201;BME280;64981;52.930;9.266;2023-02-13T01:25:24;103526.25;;;7.72;80.73
76201;BME280;64981;52.930;9.266;2023-02-13T01:27:50;103531.22;;;7.78;79.78
76201;BME280;64981;52.930;9.266;2023-02-13T01:30:17;103523.50;;;7.92;79.31
76201;BME280;64981;52.930;9.266;2023-02-13T01:32:44;103531.47;;;7.73;80.16
76201;BME280;64981;52.930;9.266;2023-02-13T01:35:12;103517.97;;;7.62;80.27
76201;BME280;64981;52.930;9.266;2023-02-13T01:37:38;103514.88;;;7.54;80.24
76201;BME280;64981;52.930;9.266;2023-02-13T01:40:05;103527.28;;;7.69;80.06
76201;BME280;64981;52.930;9.266;2023-02-13T01:42:34;103518.53;;;7.69;79.78
76201;BME280;64981;52.930;9.266;2023-02-13T01:45:18;103522.31;;;7.63;80.23
76201;BME280;64981;52.930;9.266;2023-02-13T01:47:49;103517.16;;;7.43;80.70
76201;BME280;64981;52.930;9.266;2023-02-13T01:50:31;103506.38;;;7.49;80.48
76201;BME280;64981;52.930;9.266;2023-02-13T01:53:05;103506.75;;;7.58;80.02
76201;BME280;64981;52.930;9.266;2023-02-13T01:55:34;103496.97;;;7.43;80.09
76201;BME280;64981;52.930;9.266;2023-02-13T01:58:07;103500.63;;;7.41;80.09
76201;BME280;64981;52.930;9.266;2023-02-13T02:00:34;103489.47;;;7.36;80.18
76201;BME280;64981;52.930;9.266;2023-02-13T02:03:08;103498.84;;;7.58;79.67
76201;BME280;64981;52.930;9.266;2023-02-13T02:05:36;103494.66;;;7.37;80.17
76201;BME280;64981;52.930;9.266;2023-02-13T02:08:05;103486.00;;;7.52;80.01
76201;BME280;64981;52.930;9.266;2023-02-13T02:10:33;103478.13;;;7.52;79.97
76201;BME280;64981;52.930;9.266;2023-02-13T02:13:06;103486.81;;;7.72;79.22
76201;BME280;64981;52.930;9.266;2023-02-13T02:15:34;103487.41;;;7.59;79.15
76201;BME280;64981;52.930;9.266;2023-02-13T02:18:00;103482.28;;;7.39;79.63
76201;BME280;64981;52.930;9.266;2023-02-13T02:20:59;103481.75;;;7.33;80.11
76201;BME280;64981;52.930;9.266;2023-02-13T02:26:58;103481.13;;;7.45;79.67
76201;BME280;64981;52.930;9.266;2023-02-13T02:29:54;103481.44;;;7.39;79.93
76201;BME280;64981;52.930;9.266;2023-02-13T02:32:43;103479.06;;;7.51;79.35
76201;BME280;64981;52.930;9.266;2023-02-13T02:35:31;103475.88;;;7.62;79.13
76201;BME280;64981;52.930;9.266;2023-02-13T02:38:16;103472.44;;;7.26;80.01
76201;BME280;64981;52.930;9.266;2023-02-13T02:43:53;103472.75;;;7.37;80.03
76201;BME280;64981;52.930;9.266;2023-02-13T02:46:35;103463.66;;;7.08;81.59
76201;BME280;64981;52.930;9.266;2023-02-13T02:49:06;103461.63;;;7.32;80.54
76201;BME280;64981;52.930;9.266;2023-02-13T02:52:14;103464.97;;;7.35;80.48
76201;BME280;64981;52.930;9.266;2023-02-13T02:54:50;103463.50;;;7.47;79.83
76201;BME280;64981;52.930;9.266;2023-02-13T02:57:37;103445.03;;;7.48;79.95
76201;BME280;64981;52.930;9.266;2023-02-13T03:00:26;103454.44;;;7.35;80.54
76201;BME280;64981;52.930;9.266;2023-02-13T03:03:13;103455.41;;;7.51;79.73
76201;BME280;64981;52.930;9.266;2023-02-13T03:05:55;103462.72;;;7.45;80.14
76201;BME280;64981;52.930;9.266;2023-02-13T03:08:34;103462.88;;;7.42;80.55
76201;BME280;64981;52.930;9.266;2023-02-13T03:11:14;103459.84;;;7.32;81.04
76201;BME280;64981;52.930;9.266;2023-02-13T03:13:59;103463.66;;;7.44;80.51
76201;BME280;64981;52.930;9.266;2023-02-13T03:16:25;103458.63;;;7.39;80.89
76201;BME280;64981;52.930;9.266;2023-02-13T03:19:12;103458.78;;;7.36;80.47
76201;BME280;64981;52.930;9.266;2023-02-13T03:22:07;103459.59;;;7.37;80.57
76201;BME280;64981;52.930;9.266;2023-02-13T03:25:17;103460.00;;;7.46;79.95
76201;BME280;64981;52.930;9.266;2023-02-13T03:28:12;103461.03;;;7.44;80.53
76201;BME280;64981;52.930;9.266;2023-02-13T03:31:14;103462.81;;;7.60;79.88
76201;BME280;64981;52.930;9.266;2023-02-13T03:34:09;103466.31;;;7.61;79.76
76201;BME280;64981;52.930;9.266;2023-02-13T03:36:53;103467.19;;;7.43;80.38
76201;BME280;64981;52.930;9.266;2023-02-13T03:39:47;103468.16;;;7.42;80.51
76201;BME280;64981;52.930;9.266;2023-02-13T03:45:10;103467.03;;;7.29;81.15
76201;BME280;64981;52.930;9.266;2023-02-13T03:48:00;103466.03;;;7.31;80.73
76201;BME280;64981;52.930;9.266;2023-02-13T03:50:39;103470.66;;;7.26;81.48
76201;BME280;64981;52.930;9.266;2023-02-13T03:53:12;103463.50;;;7.30;80.95
76201;BME280;64981;52.930;9.266;2023-02-13T03:55:44;103464.56;;;7.26;81.31
76201;BME280;64981;52.930;9.266;2023-02-13T03:58:32;103464.66;;;7.41;80.65
76201;BME280;64981;52.930;9.266;2023-02-13T04:01:18;103471.28;;;7.31;81.26
76201;BME280;64981;52.930;9.266;2023-02-13T04:04:04;103465.63;;;7.22;81.95
76201;BME280;64981;52.930;9.266;2023-02-13T04:06:37;103459.16;;;7.29;81.57
76201;BME280;64981;52.930;9.266;2023-02-13T04:09:06;103460.31;;;7.23;81.62
76201;BME280;64981;52.930;9.266;2023-02-13T04:11:40;103456.06;;;7.38;80.86
76201;BME280;64981;52.930;9.266;2023-02-13T04:14:15;103467.91;;;7.46;80.40
76201;BME280;64981;52.930;9.266;2023-02-13T04:16:50;103471.38;;;7.30;81.31
76201;BME280;64981;52.930;9.266;2023-02-13T04:19:19;103454.25;;;7.21;81.45
76201;BME280;64981;52.930;9.266;2023-02-13T04:21:49;103465.50;;;7.42;80.93
76201;BME280;64981;52.930;9.266;2023-02-13T04:24:19;103450.66;;;7.41;80.61
76201;BME280;64981;52.930;9.266;2023-02-13T04:26:46;103453.59;;;7.35;80.85
76201;BME280;64981;52.930;9.266;2023-02-13T04:29:11;103465.88;;;7.34;80.94
76201;BME280;64981;52.930;9.266;2023-02-13T04:31:37;103461.63;;;7.32;81.15
76201;BME280;64981;52.930;9.266;2023-02-13T04:34:03;103468.50;;;7.34;81.31
76201;BME280;64981;52.930;9.266;2023-02-13T04:36:29;103467.03;;;7.46;80.89
76201;BME280;64981;52.930;9.266;2023-02-13T04:38:54;103464.50;;;7.44;80.76
76201;BME280;64981;52.930;9.266;2023-02-13T04:41:20;103462.78;;;7.43;80.83
76201;BME280;64981;52.930;9.266;2023-02-13T04:43:46;103464.66;;;7.41;81.02
76201;BME280;64981;52.930;9.266;2023-02-13T04:46:11;103453.88;;;7.29;81.15
76201;BME280;64981;52.930;9.266;2023-02-13T04:48:37;103466.81;;;7.33;81.03
76201;BME280;64981;52.930;9.266;2023-02-13T04:51:03;103457.63;;;7.42;80.56
76201;BME280;64981;52.930;9.266;2023-02-13T04:53:28;103457.53;;;7.43;80.65
76201;BME280;64981;52.930;9.266;2023-02-13T04:55:54;103444.38;;;7.26;81.23
76201;BME280;64981;52.930;9.266;2023-02-13T04:58:19;103455.75;;;7.44;80.78
76201;BME280;64981;52.930;9.266;2023-02-13T05:00:45;103466.78;;;7.52;80.58
76201;BME280;64981;52.930;9.266;2023-02-13T05:03:12;103464.34;;;7.47;80.67
76201;BME280;64981;52.930;9.266;2023-02-13T05:05:38;103462.88;;;7.42;80.99
76201;BME280;64981;52.930;9.266;2023-02-13T05:08:06;103463.50;;;7.30;81.66
76201;BME280;64981;52.930;9.266;2023-02-13T05:10:33;103458.28;;;7.28;81.75
76201;BME280;64981;52.930;9.266;2023-02-13T05:12:59;103463.13;;;7.19;82.03
76201;BME280;64981;52.930;9.266;2023-02-13T05:15:25;103462.44;;;7.15;82.57
76201;BME280;64981;52.930;9.266;2023-02-13T05:17:51;103444.56;;;7.04;82.52
76201;BME280;64981;52.930;9.266;2023-02-13T05:20:17;103462.31;;;6.99;82.55
76201;BME280;64981;52.930;9.266;2023-02-13T05:22:45;103454.63;;;7.14;82.20
76201;BME280;64981;52.930;9.266;2023-02-13T05:25:24;103470.78;;;7.42;81.21
76201;BME280;64981;52.930;9.266;2023-02-13T05:27:50;103460.84;;;7.30;81.54
76201;BME280;64981;52.930;9.266;2023-02-13T05:30:15;103467.19;;;7.26;81.84
76201;BME280;64981;52.930;9.266;2023-02-13T05:32:41;103463.91;;;7.39;81.24
76201;BME280;64981;52.930;9.266;2023-02-13T05:35:07;103463.66;;;7.44;81.02
76201;BME280;64981;52.930;9.266;2023-02-13T05:37:33;103469.91;;;7.41;81.02
76201;BME280;64981;52.930;9.266;2023-02-13T05:39:58;103469.63;;;7.47;80.93
76201;BME280;64981;52.930;9.266;2023-02-13T05:42:24;103471.78;;;7.39;81.26
76201;BME280;64981;52.930;9.266;2023-02-13T05:44:49;103468.91;;;7.44;81.24
76201;BME280;64981;52.930;9.266;2023-02-13T05:47:15;103466.97;;;7.47;81.00
76201;BME280;64981;52.930;9.266;2023-02-13T05:49:40;103464.19;;;7.50;80.87
76201;BME280;64981;52.930;9.266;2023-02-13T05:52:06;103457.00;;;7.54;80.43
76201;BME280;64981;52.930;9.266;2023-02-13T05:54:32;103477.59;;;7.63;80.26
76201;BME280;64981;52.930;9.266;2023-02-13T05:56:57;103468.06;;;7.43;80.63
76201;BME280;64981;52.930;9.266;2023-02-13T05:59:23;103474.88;;;7.47;80.66
76201;BME280;64981;52.930;9.266;2023-02-13T06:01:48;103480.06;;;7.49;80.71
76201;BME280;64981;52.930;9.266;2023-02-13T06:04:14;103472.31;;;7.46;80.32
76201;BME280;64981;52.930;9.266;2023-02-13T06:06:40;103470.13;;;7.37;80.97
76201;BME280;64981;52.930;9.266;2023-02-13T06:09:05;103479.44;;;7.44;80.89
76201;BME280;64981;52.930;9.266;2023-02-13T06:11:31;103481.28;;;7.42;80.83
76201;BME280;64981;52.930;9.266;2023-02-13T06:13:56;103476.81;;;7.44;80.78
76201;BME280;64981;52.930;9.266;2023-02-13T06:16:22;103485.53;;;7.61;80.25
76201;BME280;64981;52.930;9.266;2023-02-13T06:18:47;103485.63;;;7.60;80.19
76201;BME280;64981;52.930;9.266;2023-02-13T06:21:13;103479.69;;;7.56;80.48
76201;BME280;64981;52.930;9.266;2023-02-13T06:23:38;103488.63;;;7.52;80.77
76201;BME280;64981;52.930;9.266;2023-02-13T06:26:06;103485.44;;;7.46;80.75
76201;BME280;64981;52.930;9.266;2023-02-13T06:28:33;103482.56;;;7.52;80.48
76201;BME280;64981;52.930;9.266;2023-02-13T06:30:59;103480.50;;;7.40;81.00
76201;BME280;64981;52.930;9.266;2023-02-13T06:33:24;103484.69;;;7.44;80.97
76201;BME280;64981;52.930;9.266;2023-02-13T06:35:50;103479.03;;;7.34;81.38
76201;BME280;64981;52.930;9.266;2023-02-13T06:38:16;103487.81;;;7.52;80.68
76201;BME280;64981;52.930;9.266;2023-02-13T06:40:45;103486.41;;;7.45;81.02
76201;BME280;64981;52.930;9.266;2023-02-13T06:43:11;103494.34;;;7.43;81.03
76201;BME280;64981;52.930;9.266;2023-02-13T06:45:37;103496.16;;;7.60;80.35
76201;BME280;64981;52.930;9.266;2023-02-13T06:48:03;103491.97;;;7.56;80.36
76201;BME280;64981;52.930;9.266;2023-02-13T06:50:28;103497.88;;;7.61;80.32
76201;BME280;64981;52.930;9.266;2023-02-13T06:52:54;103496.78;;;7.48;80.83
76201;BME280;64981;52.930;9.266;2023-02-13T06:55:19;103492.06;;;7.54;80.69
76201;BME280;64981;52.930;9.266;2023-02-13T06:57:45;103495.75;;;7.50;80.48
76201;BME280;64981;52.930;9.266;2023-02-13T07:00:13;103502.59;;;7.54;80.51
76201;BME280;64981;52.930;9.266;2023-02-13T07:02:40;103499.09;;;7.54;80.73
76201;BME280;64981;52.930;9.266;2023-02-13T07:05:06;103506.84;;;7.57;80.60
76201;BME280;64981;52.930;9.266;2023-02-13T07:07:34;103512.94;;;7.57;80.37
76201;BME280;64981;52.930;9.266;2023-02-13T07:10:00;103519.84;;;7.60;80.53
76201;BME280;64981;52.930;9.266;2023-02-13T07:12:27;103517.72;;;7.49;80.66
76201;BME280;64981;52.930;9.266;2023-02-13T07:14:52;103506.38;;;7.49;80.49
76201;BME280;64981;52.930;9.266;2023-02-13T07:17:18;103511.69;;;7.47;80.94
76201;BME280;64981;52.930;9.266;2023-02-13T07:19:43;103519.03;;;7.41;81.18
76201;BME280;64981;52.930;9.266;2023-02-13T07:22:09;103509.22;;;7.44;81.17
76201;BME280;64981;52.930;9.266;2023-02-13T07:24:35;103508.75;;;7.36;81.30
76201;BME280;64981;52.930;9.266;2023-02-13T07:27:03;103510.97;;;7.27;81.74
76201;BME280;64981;52.930;9.266;2023-02-13T07:29:29;103512.25;;;7.54;80.46
76201;BME280;64981;52.930;9.266;2023-02-13T07:31:55;103519.03;;;7.41;81.27
76201;BME280;64981;52.930;9.266;2023-02-13T07:34:20;103512.84;;;7.42;81.17
76201;BME280;64981;52.930;9.266;2023-02-13T07:36:46;103518.72;;;7.47;80.57
76201;BME280;64981;52.930;9.266;2023-02-13T07:39:11;103521.06;;;7.53;80.65
76201;BME280;64981;52.930;9.266;2023-02-13T07:41:37;103516.81;;;7.50;80.73
76201;BME280;64981;52.930;9.266;2023-02-13T07:44:02;103523.13;;;7.46;81.05
76201;BME280;64981;52.930;9.266;2023-02-13T07:46:28;103522.75;;;7.54;80.86
76201;BME280;64981;52.930;9.266;2023-02-13T07:48:54;103510.78;;;7.48;80.97
76201;BME280;64981;52.930;9.266;2023-02-13T07:51:20;103530.34;;;7.60;80.60
76201;BME280;64981;52.930;9.266;2023-02-13T07:53:50;103527.78;;;7.58;80.94
76201;BME280;64981;52.930;9.266;2023-02-13T07:56:17;103533.75;;;7.62;80.83
76201;BME280;64981;52.930;9.266;2023-02-13T07:58:43;103532.06;;;7.61;80.66
76201;BME280;64981;52.930;9.266;2023-02-13T08:01:11;103523.63;;;7.72;80.28
76201;BME280;64981;52.930;9.266;2023-02-13T08:03:38;103525.34;;;7.73;80.40
76201;BME280;64981;52.930;9.266;2023-02-13T08:06:05;103519.16;;;7.74;80.01
76201;BME280;64981;52.930;9.266;2023-02-13T08:08:32;103517.50;;;7.71;80.26
76201;BME280;64981;52.930;9.266;2023-02-13T08:11:05;103524.28;;;7.41;81.09
76201;BME280;64981;52.930;9.266;2023-02-13T08:13:44;103524.78;;;7.49;80.71
76201;BME280;64981;52.930;9.266;2023-02-13T08:16:10;103523.22;;;7.62;80.28
76201;BME280;64981;52.930;9.266;2023-02-13T08:18:35;103523.56;;;7.73;79.97
76201;BME280;64981;52.930;9.266;2023-02-13T08:21:01;103520.22;;;7.87;79.53
76201;BME280;64981;52.930;9.266;2023-02-13T08:23:27;103523.72;;;7.87;79.68
76201;BME280;64981;52.930;9.266;2023-02-13T08:25:53;103525.81;;;7.81;79.82
76201;BME280;64981;52.930;9.266;2023-02-13T08:28:18;103531.88;;;7.83;79.79
76201;BME280;64981;52.930;9.266;2023-02-13T08:30:44;103530.47;;;7.76;80.26
76201;BME280;64981;52.930;9.266;2023-02-13T08:33:09;103537.44;;;7.94;79.30
76201;BME280;64981;52.930;9.266;2023-02-13T08:35:35;103536.28;;;7.82;79.73
76201;BME280;64981;52.930;9.266;2023-02-13T08:38:03;103532.16;;;7.94;79.38
76201;BME280;64981;52.930;9.266;2023-02-13T08:40:29;103533.94;;;7.93;79.27
76201;BME280;64981;52.930;9.266;2023-02-13T08:42:59;103533.34;;;7.88;79.31
76201;BME280;64981;52.930;9.266;2023-02-13T08:45:25;103535.34;;;7.83;79.62
76201;BME280;64981;52.930;9.266;2023-02-13T08:47:54;103534.59;;;7.98;79.17
76201;BME280;64981;52.930;9.266;2023-02-13T08:50:22;103533.63;;;7.99;79.31
76201;BME280;64981;52.930;9.266;2023-02-13T08:52:47;103530.22;;;7.97;79.26
76201;BME280;64981;52.930;9.266;2023-02-13T08:55:13;103537.81;;;8.03;79.11
76201;BME280;64981;52.930;9.266;2023-02-13T08:57:39;103528.22;;;7.85;79.60
76201;BME280;64981;52.930;9.266;2023-02-13T09:00:05;103534.66;;;7.80;79.97
76201;BME280;64981;52.930;9.266;2023-02-13T09:02:31;103534.88;;;7.92;79.33
76201;BME280;64981;52.930;9.266;2023-02-13T09:04:56;103531.69;;;8.03;78.98
76201;BME280;64981;52.930;9.266;2023-02-13T09:07:22;103527.38;;;8.02;78.90
76201;BME280;64981;52.930;9.266;2023-02-13T09:09:47;103527.78;;;8.11;78.68
76201;BME280;64981;52.930;9.266;2023-02-13T09:12:13;103537.88;;;8.19;78.02
76201;BME280;64981;52.930;9.266;2023-02-13T09:14:39;103534.78;;;8.28;77.83
76201;BME280;64981;52.930;9.266;2023-02-13T09:17:05;103532.09;;;8.30;77.87
76201;BME280;64981;52.930;9.266;2023-02-13T09:19:30;103526.22;;;8.07;79.14
76201;BME280;64981;52.930;9.266;2023-02-13T09:21:56;103522.50;;;8.11;78.63
76201;BME280;64981;52.930;9.266;2023-02-13T09:24:21;103527.19;;;8.22;78.59
76201;BME280;64981;52.930;9.266;2023-02-13T09:26:47;103530.31;;;8.30;78.19
76201;BME280;64981;52.930;9.266;2023-02-13T09:29:13;103531.56;;;8.23;78.09
76201;BME280;64981;52.930;9.266;2023-02-13T09:31:38;103529.13;;;8.18;78.75
76201;BME280;64981;52.930;9.266;2023-02-13T09:34:04;103540.53;;;8.02;79.54
76201;BME280;64981;52.930;9.266;2023-02-13T09:36:29;103526.81;;;8.12;78.97
76201;BME280;64981;52.930;9.266;2023-02-13T09:38:56;103527.38;;;8.19;78.70
76201;BME280;64981;52.930;9.266;2023-02-13T09:41:36;103538.81;;;8.18;79.12
76201;BME280;64981;52.930;9.266;2023-02-13T09:44:15;103535.97;;;8.23;78.81
76201;BME280;64981;52.930;9.266;2023-02-13T09:46:55;103540.59;;;8.35;78.45
76201;BME280;64981;52.930;9.266;2023-02-13T09:49:27;103539.19;;;8.28;78.32
76201;BME280;64981;52.930;9.266;2023-02-13T09:51:56;103542.25;;;8.53;77.61
76201;BME280;64981;52.930;9.266;2023-02-13T09:54:22;103539.81;;;8.33;78.26
76201;BME280;64981;52.930;9.266;2023-02-13T09:56:58;103542.63;;;8.30;78.18
76201;BME280;64981;52.930;9.266;2023-02-13T09:59:52;103547.34;;;8.23;78.25
76201;BME280;64981;52.930;9.266;2023-02-13T10:12:03;103547.28;;;8.57;77.39
76201;BME280;64981;52.930;9.266;2023-02-13T10:14:43;103531.31;;;8.60;77.03
76201;BME280;64981;52.930;9.266;2023-02-13T10:17:15;103534.19;;;8.73;76.29
76201;BME280;64981;52.930;9.266;2023-02-13T10:19:47;103547.38;;;8.56;76.11
76201;BME280;64981;52.930;9.266;2023-02-13T10:22:19;103552.47;;;8.59;76.50
76201;BME280;64981;52.930;9.266;2023-02-13T10:25:05;103544.81;;;8.71;75.90
76201;BME280;64981;52.930;9.266;2023-02-13T10:27:41;103546.94;;;8.81;76.29
76201;BME280;64981;52.930;9.266;2023-02-13T10:30:26;103540.91;;;8.79;76.42
76201;BME280;64981;52.930;9.266;2023-02-13T10:33:14;103552.69;;;9.04;74.80
76201;BME280;64981;52.930;9.266;2023-02-13T10:35:57;103546.72;;;8.85;74.55
76201;BME280;64981;52.930;9.266;2023-02-13T10:38:29;103539.22;;;8.93;74.97
76201;BME280;64981;52.930;9.266;2023-02-13T10:41:17;103541.78;;;8.95;74.59
76201;BME280;64981;52.930;9.266;2023-02-13T10:44:22;103542.38;;;9.00;74.36
76201;BME280;64981;52.930;9.266;2023-02-13T10:50:02;103533.44;;;8.71;75.84
76201;BME280;64981;52.930;9.266;2023-02-13T10:52:52;103544.56;;;8.59;76.66
76201;BME280;64981;52.930;9.266;2023-02-13T10:55:44;103540.66;;;8.67;76.97
76201;BME280;64981;52.930;9.266;2023-02-13T11:04:28;103531.84;;;9.00;74.90
76201;BME280;64981;52.930;9.266;2023-02-13T11:07:10;103533.38;;;9.04;74.32
76201;BME280;64981;52.930;9.266;2023-02-13T11:09:40;103532.78;;;8.99;74.25
76201;BME280;64981;52.930;9.266;2023-02-13T11:15:03;103523.09;;;8.99;75.60
76201;BME280;64981;52.930;9.266;2023-02-13T11:17:41;103516.78;;;8.86;74.89
76201;BME280;64981;52.930;9.266;2023-02-13T11:20:32;103518.63;;;8.84;76.14
76201;BME280;64981;52.930;9.266;2023-02-13T11:26:48;103516.81;;;9.02;76.18
76201;BME280;64981;52.930;9.266;2023-02-13T11:29:17;103516.19;;;9.12;75.21
76201;BME280;64981;52.930;9.266;2023-02-13T11:31:45;103516.81;;;9.33;74.73
76201;BME280;64981;52.930;9.266;2023-02-13T11:34:27;103511.06;;;9.41;72.95
76201;BME280;64981;52.930;9.266;2023-02-13T11:37:13;103505.56;;;9.45;73.07
76201;BME280;64981;52.930;9.266;2023-02-13T11:39:41;103502.41;;;9.23;74.16
76201;BME280;64981;52.930;9.266;2023-02-13T11:42:34;103501.91;;;9.32;73.30
76201;BME280;64981;52.930;9.266;2023-02-13T11:45:14;103487.00;;;9.31;73.25
76201;BME280;64981;52.930;9.266;2023-02-13T11:47:45;103491.84;;;9.39;74.26
76201;BME280;64981;52.930;9.266;2023-02-13T11:50:31;103496.03;;;9.43;73.61
76201;BME280;64981;52.930;9.266;2023-02-13T11:53:15;103495.22;;;9.56;73.00
76201;BME280;64981;52.930;9.266;2023-02-13T11:55:45;103493.84;;;9.65;72.49
76201;BME280;64981;52.930;9.266;2023-02-13T11:58:27;103496.78;;;9.74;71.97
76201;BME280;64981;52.930;9.266;2023-02-13T12:01:22;103499.41;;;9.74;72.15
76201;BME280;64981;52.930;9.266;2023-02-13T12:04:04;103504.59;;;9.62;72.20
76201;BME280;64981;52.930;9.266;2023-02-13T12:06:31;103509.41;;;9.69;72.00
76201;BME280;64981;52.930;9.266;2023-02-13T12:09:14;103500.81;;;9.66;71.62
76201;BME280;64981;52.930;9.266;2023-02-13T12:11:48;103491.06;;;9.52;72.53
76201;BME280;64981;52.930;9.266;2023-02-13T12:14:21;103494.44;;;9.70;71.59
76201;BME280;64981;52.930;9.266;2023-02-13T12:16:53;103504.63;;;9.76;71.64
76201;BME280;64981;52.930;9.266;2023-02-13T12:19:27;103494.81;;;9.78;71.25
76201;BME280;64981;52.930;9.266;2023-02-13T12:22:30;103500.59;;;9.85;70.61
76201;BME280;64981;52.930;9.266;2023-02-13T12:28:10;103497.94;;;9.70;71.02
76201;BME280;64981;52.930;9.266;2023-02-13T12:30:58;103489.19;;;9.54;72.25
76201;BME280;64981;52.930;9.266;2023-02-13T12:36:56;103491.25;;;9.79;71.03
76201;BME280;64981;52.930;9.266;2023-02-13T12:39:36;103487.31;;;9.86;71.04
76201;BME280;64981;52.930;9.266;2023-02-13T12:57:23;103474.06;;;10.16;68.92
76201;BME280;64981;52.930;9.266;2023-02-13T13:03:04;103474.25;;;10.13;69.49
76201;BME280;64981;52.930;9.266;2023-02-13T13:05:57;103465.72;;;9.94;69.67
76201;BME280;64981;52.930;9.266;2023-02-13T13:11:56;103456.19;;;9.77;70.38
76201;BME280;64981;52.930;9.266;2023-02-13T13:14:45;103451.75;;;9.77;70.50
76201;BME280;64981;52.930;9.266;2023-02-13T13:17:52;103443.78;;;9.93;69.86
76201;BME280;64981;52.930;9.266;2023-02-13T13:20:43;103439.88;;;9.85;70.49
76201;BME280;64981;52.930;9.266;2023-02-13T13:23:33;103440.06;;;9.82;71.24
76201;BME280;64981;52.930;9.266;2023-02-13T13:26:20;103443.66;;;9.95;70.18
76201;BME280;64981;52.930;9.266;2023-02-13T13:28:54;103446.25;;;10.10;70.42
76201;BME280;64981;52.930;9.266;2023-02-13T13:31:22;103435.91;;;10.21;69.59
76201;BME280;64981;52.930;9.266;2023-02-13T13:33:59;103442.00;;;10.08;69.13
76201;BME280;64981;52.930;9.266;2023-02-13T13:36:43;103433.47;;;9.89;70.31
76201;BME280;64981;52.930;9.266;2023-02-13T13:39:26;103424.94;;;9.99;69.16
76201;BME280;64981;52.930;9.266;2023-02-13T13:50:56;103420.94;;;10.06;69.51
76201;BME280;64981;52.930;9.266;2023-02-13T13:53:22;103431.50;;;10.06;69.20
76201;BME280;64981;52.930;9.266;2023-02-13T13:56:02;103427.13;;;10.21;69.01
76201;BME280;64981;52.930;9.266;2023-02-13T13:58:48;103420.50;;;10.14;68.74
76201;BME280;64981;52.930;9.266;2023-02-13T14:01:19;103420.47;;;10.00;69.25
76201;BME280;64981;52.930;9.266;2023-02-13T14:03:55;103415.84;;;10.03;68.61
76201;BME280;64981;52.930;9.266;2023-02-13T14:09:46;103422.53;;;9.95;69.83
76201;BME280;64981;52.930;9.266;2023-02-13T14:18:26;103424.94;;;9.99;69.57
76201;BME280;64981;52.930;9.266;2023-02-13T14:20:59;103420.56;;;10.12;69.29
76201;BME280;64981;52.930;9.266;2023-02-13T14:23:53;103428.94;;;9.91;69.62
76201;BME280;64981;52.930;9.266;2023-02-13T14:26:38;103426.34;;;10.05;69.80
76201;BME280;64981;52.930;9.266;2023-02-13T14:29:25;103420.28;;;10.03;69.78
76201;BME280;64981;52.930;9.266;2023-02-13T14:31:59;103408.91;;;10.02;70.46
76201;BME280;64981;52.930;9.266;2023-02-13T14:34:32;103404.28;;;10.06;70.20
76201;BME280;64981;52.930;9.266;2023-02-13T14:37:17;103403.31;;;9.93;71.01
76201;BME280;64981;52.930;9.266;2023-02-13T14:43:06;103400.19;;;10.00;70.86
76201;BME280;64981;52.930;9.266;2023-02-13T14:45:51;103394.47;;;10.22;70.08
76201;BME280;64981;52.930;9.266;2023-02-13T14:48:21;103381.66;;;10.30;69.59
76201;BME280;64981;52.930;9.266;2023-02-13T14:50:51;103396.59;;;10.15;70.17